createdAt,value
2018-05-24T00:00:08.967Z,101534.16
2018-05-24T00:02:37.357Z,101540.45
2018-05-24T00:05:05.643Z,101538.24
2018-05-24T00:07:33.908Z,101537.70
2018-05-24T00:10:02.305Z,101540.02
2018-05-24T00:12:30.657Z,101539.91
2018-05-24T00:14:59.673Z,101538.81
2018-05-24T00:17:28.726Z,101536.77
2018-05-24T00:19:56.994Z,101535.45
2018-05-24T00:22:25.259Z,101533.14
2018-05-24T00:24:54.377Z,101531.42
2018-05-24T00:27:23.416Z,101525.16
2018-05-24T00:29:51.693Z,101527.45
2018-05-24T00:32:20.078Z,101528.12
2018-05-24T00:34:48.329Z,101528.20
2018-05-24T00:37:16.659Z,101520.96
2018-05-24T00:39:45.762Z,101521.98
2018-05-24T00:42:14.029Z,101520.43
2018-05-24T00:44:42.304Z,101519.89
2018-05-24T00:47:10.581Z,101517.06
2018-05-24T00:49:38.948Z,101515.62
2018-05-24T00:52:07.371Z,101514.30
2018-05-24T00:54:35.777Z,101503.22
2018-05-24T00:57:03.946Z,101500.02
2018-05-24T00:59:32.226Z,101500.27
2018-05-24T01:02:00.587Z,101497.87
2018-05-24T01:04:28.846Z,101500.59
2018-05-24T01:06:57.127Z,101499.50
2018-05-24T01:09:25.412Z,101497.30
2018-05-24T01:11:53.767Z,101490.67
2018-05-24T01:14:22.034Z,101492.02
2018-05-24T01:16:51.076Z,101489.56
2018-05-24T01:19:19.419Z,101486.07
2018-05-24T01:21:48.543Z,101484.49
2018-05-24T01:24:16.851Z,101485.16
2018-05-24T01:26:45.144Z,101490.31
2018-05-24T01:29:13.405Z,101483.30
2018-05-24T01:31:42.454Z,101478.94
2018-05-24T01:34:10.720Z,101478.94
2018-05-24T01:36:56.711Z,101480.00
2018-05-24T01:39:25.820Z,101477.16
2018-05-24T01:41:54.827Z,101479.59
2018-05-24T01:44:23.882Z,101477.36
2018-05-24T01:46:52.139Z,101475.95
2018-05-24T01:49:20.460Z,101475.75
2018-05-24T01:51:48.822Z,101480.68
2018-05-24T01:54:17.950Z,101472.92
2018-05-24T01:56:46.227Z,101475.64
2018-05-24T01:59:14.614Z,101473.31
2018-05-24T02:01:42.889Z,101465.73
2018-05-24T02:04:11.937Z,101467.36
2018-05-24T02:06:40.318Z,101468.59
2018-05-24T02:09:08.599Z,101462.34
2018-05-24T02:11:36.986Z,101463.13
2018-05-24T02:14:05.327Z,101457.70
2018-05-24T02:16:33.773Z,101452.01
2018-05-24T02:19:02.039Z,101455.98
2018-05-24T02:21:31.160Z,101446.53
2018-05-24T02:24:00.903Z,101449.72
2018-05-24T02:26:29.172Z,101447.51
2018-05-24T02:28:58.203Z,101447.11
2018-05-24T02:31:26.448Z,101447.71
2018-05-24T02:33:54.727Z,101447.28
2018-05-24T02:36:23.010Z,101445.62
2018-05-24T02:38:51.271Z,101442.66
2018-05-24T02:41:19.518Z,101439.63
2018-05-24T02:43:48.563Z,101439.11
2018-05-24T02:46:16.830Z,101438.04
2018-05-24T02:48:45.863Z,101444.46
2018-05-24T02:51:14.128Z,101451.16
2018-05-24T02:53:43.173Z,101443.97
2018-05-24T02:56:11.446Z,101444.58
2018-05-24T02:58:39.749Z,101447.16
2018-05-24T03:01:08.012Z,101439.95
2018-05-24T03:03:36.302Z,101446.91
2018-05-24T03:06:04.599Z,101442.18
2018-05-24T03:08:32.870Z,101441.84
2018-05-24T03:11:01.890Z,101442.09
2018-05-24T03:13:30.188Z,101448.02
2018-05-24T03:15:58.556Z,101445.49
2018-05-24T03:18:27.610Z,101449.19
2018-05-24T03:20:55.868Z,101455.77
2018-05-24T03:23:24.133Z,101454.83
2018-05-24T03:25:53.273Z,101455.92
2018-05-24T03:28:21.561Z,101451.80
2018-05-24T03:30:49.807Z,101450.70
2018-05-24T03:33:18.071Z,101460.31
2018-05-24T03:35:46.419Z,101463.80
2018-05-24T03:38:15.538Z,101458.67
2018-05-24T03:40:43.829Z,101458.67
2018-05-24T03:43:12.887Z,101466.25
2018-05-24T03:45:41.931Z,101473.69
2018-05-24T03:48:10.970Z,101473.21
2018-05-24T03:50:39.273Z,101469.40
2018-05-24T03:53:07.552Z,101465.09
2018-05-24T03:55:35.820Z,101469.45
2018-05-24T03:58:04.103Z,101479.60
2018-05-24T04:00:50.148Z,101477.05
2018-05-24T04:03:36.395Z,101479.22
2018-05-24T04:06:04.716Z,101480.97
2018-05-24T04:08:33.937Z,101489.34
2018-05-24T04:11:03.092Z,101475.68
2018-05-24T04:13:31.351Z,101486.41
2018-05-24T04:15:59.626Z,101478.03
2018-05-24T04:18:27.915Z,101488.33
2018-05-24T04:20:56.936Z,101492.36
2018-05-24T04:23:25.222Z,101497.48
2018-05-24T04:25:54.274Z,101501.78
2018-05-24T04:28:22.539Z,101502.28
2018-05-24T04:30:50.792Z,101503.78
2018-05-24T04:33:19.914Z,101497.50
2018-05-24T04:35:48.168Z,101501.23
2018-05-24T04:38:16.482Z,101507.27
2018-05-24T04:40:45.558Z,101510.06
2018-05-24T04:43:13.917Z,101508.58
2018-05-24T04:45:42.271Z,101517.75
2018-05-24T04:48:11.404Z,101522.90
2018-05-24T04:50:39.664Z,101518.16
2018-05-24T04:53:07.948Z,101517.72
2018-05-24T04:55:36.281Z,101506.89
2018-05-24T04:58:04.531Z,101502.33
2018-05-24T05:00:32.781Z,101502.49
2018-05-24T05:03:02.882Z,101506.05
2018-05-24T05:05:31.132Z,101502.91
2018-05-24T05:07:59.420Z,101505.83
2018-05-24T05:10:29.066Z,101506.20
2018-05-24T05:12:57.594Z,101511.41
2018-05-24T05:15:26.524Z,101501.95
2018-05-24T05:17:56.213Z,101508.09
2018-05-24T05:20:26.828Z,101504.67
2018-05-24T05:22:55.171Z,101509.77
2018-05-24T05:25:28.618Z,101508.58
2018-05-24T05:27:56.956Z,101504.81
2018-05-24T05:30:26.709Z,101505.26
2018-05-24T05:32:56.202Z,101503.61
2018-05-24T05:35:25.724Z,101504.05
2018-05-24T05:37:54.137Z,101500.83
2018-05-24T05:40:22.840Z,101504.41
2018-05-24T05:42:51.402Z,101505.26
2018-05-24T05:45:19.931Z,101504.37
2018-05-24T05:47:48.219Z,101508.25
2018-05-24T05:50:16.476Z,101500.48
2018-05-24T05:52:44.759Z,101505.36
2018-05-24T05:55:13.053Z,101508.66
2018-05-24T05:57:42.083Z,101505.09
2018-05-24T06:00:12.257Z,101501.22
2018-05-24T06:02:41.672Z,101507.61
2018-05-24T06:05:10.067Z,101491.29
2018-05-24T06:07:38.503Z,101483.69
2018-05-24T06:10:07.058Z,101492.64
2018-05-24T06:12:35.316Z,101488.61
2018-05-24T06:15:03.590Z,101488.88
2018-05-24T06:17:31.893Z,101494.23
2018-05-24T06:20:00.178Z,101492.77
2018-05-24T06:22:28.457Z,101487.25
2018-05-24T06:24:56.741Z,101490.30
2018-05-24T06:27:25.021Z,101489.09
2018-05-24T06:29:54.259Z,101485.04
2018-05-24T06:32:22.522Z,101479.14
2018-05-24T06:34:50.815Z,101477.28
2018-05-24T06:37:19.169Z,101476.31
2018-05-24T06:39:48.259Z,101484.98
2018-05-24T06:42:16.505Z,101484.80
2018-05-24T06:44:44.784Z,101482.52
2018-05-24T06:47:13.074Z,101483.10
2018-05-24T06:49:41.323Z,101482.00
2018-05-24T06:52:09.606Z,101487.69
2018-05-24T06:54:37.888Z,101485.91
2018-05-24T06:57:06.265Z,101486.18
2018-05-24T06:59:34.522Z,101486.42
2018-05-24T07:02:03.573Z,101494.32
2018-05-24T07:04:31.853Z,101497.63
2018-05-24T07:07:00.232Z,101498.95
2018-05-24T07:09:28.500Z,101503.14
2018-05-24T07:11:57.548Z,101502.90
2018-05-24T07:14:25.813Z,101506.26
2018-05-24T07:16:54.113Z,101505.92
2018-05-24T07:19:22.405Z,101509.71
2018-05-24T07:21:50.698Z,101506.55
2018-05-24T07:24:19.087Z,101509.73
2018-05-24T07:26:47.355Z,101506.01
2018-05-24T07:29:16.483Z,101508.76
2018-05-24T07:31:45.950Z,101505.80
2018-05-24T07:34:14.231Z,101508.05
2018-05-24T07:36:42.515Z,101509.36
2018-05-24T07:39:10.835Z,101515.63
2018-05-24T07:41:39.149Z,101514.87
2018-05-24T07:44:07.562Z,101508.25
2018-05-24T07:46:35.880Z,101501.90
2018-05-24T07:49:04.136Z,101503.45
2018-05-24T07:51:32.421Z,101502.59
2018-05-24T07:54:01.444Z,101498.66
2018-05-24T07:56:29.695Z,101498.97
2018-05-24T08:01:33.434Z,101496.61
2018-05-24T08:04:01.644Z,101495.29
2018-05-24T08:06:30.725Z,101492.86
2018-05-24T08:08:59.066Z,101485.44
2018-05-24T08:11:28.155Z,101487.64
2018-05-24T08:13:57.273Z,101483.14
2018-05-24T08:16:25.535Z,101484.95
2018-05-24T08:18:53.801Z,101476.02
2018-05-24T08:21:22.167Z,101475.11
2018-05-24T08:23:50.450Z,101480.44
2018-05-24T08:26:18.941Z,101471.91
2018-05-24T08:28:47.214Z,101469.72
2018-05-24T08:31:16.245Z,101474.74
2018-05-24T08:33:44.626Z,101470.52
2018-05-24T08:36:13.650Z,101469.17
2018-05-24T08:38:41.949Z,101469.16
2018-05-24T08:41:10.284Z,101463.34
2018-05-24T08:43:38.607Z,101470.30
2018-05-24T08:46:06.975Z,101466.61
2018-05-24T08:48:35.273Z,101467.95
2018-05-24T08:51:03.524Z,101464.88
2018-05-24T08:53:31.783Z,101463.67
2018-05-24T08:56:00.170Z,101469.42
2018-05-24T08:58:28.440Z,101460.48
2018-05-24T09:00:57.496Z,101460.75
2018-05-24T09:03:25.817Z,101452.20
2018-05-24T09:05:54.109Z,101458.11
2018-05-24T09:08:22.383Z,101454.95
2018-05-24T09:10:50.734Z,101455.00
2018-05-24T09:13:19.001Z,101454.87
2018-05-24T09:15:48.115Z,101455.57
2018-05-24T09:18:17.143Z,101450.80
2018-05-24T09:20:45.395Z,101457.80
2018-05-24T09:23:14.447Z,101465.70
2018-05-24T09:25:42.808Z,101456.48
2018-05-24T09:28:11.862Z,101461.03
2018-05-24T09:30:40.168Z,101457.79
2018-05-24T09:33:08.451Z,101458.48
2018-05-24T09:35:36.798Z,101462.20
2018-05-24T09:38:05.849Z,101462.31
2018-05-24T09:40:34.934Z,101459.30
2018-05-24T09:43:03.198Z,101454.92
2018-05-24T09:45:32.327Z,101466.84
2018-05-24T09:48:00.591Z,101459.84
2018-05-24T09:50:29.724Z,101457.19
2018-05-24T09:52:57.993Z,101453.81
2018-05-24T09:55:27.129Z,101454.61
2018-05-24T09:57:55.385Z,101451.46
2018-05-24T10:00:23.704Z,101451.48
2018-05-24T10:02:51.943Z,101446.52
2018-05-24T10:05:20.214Z,101447.63
2018-05-24T10:07:48.497Z,101441.67
2018-05-24T10:10:16.766Z,101437.77
2018-05-24T10:12:45.067Z,101437.37
2018-05-24T10:15:13.345Z,101437.86
2018-05-24T10:17:41.614Z,101441.23
2018-05-24T10:20:10.714Z,101441.19
2018-05-24T10:22:39.760Z,101436.03
2018-05-24T10:25:08.138Z,101436.05
2018-05-24T10:27:36.387Z,101437.08
2018-05-24T10:30:04.690Z,101434.47
2018-05-24T10:32:32.997Z,101435.30
2018-05-24T10:35:02.050Z,101432.70
2018-05-24T10:37:30.329Z,101433.20
2018-05-24T10:39:58.578Z,101421.64
2018-05-24T10:42:27.609Z,101421.13
2018-05-24T10:44:55.905Z,101420.11
2018-05-24T10:47:24.181Z,101413.81
2018-05-24T10:49:52.465Z,101412.63
2018-05-24T10:52:20.723Z,101411.47
2018-05-24T10:54:48.983Z,101412.98
2018-05-24T10:57:17.261Z,101407.33
2018-05-24T10:59:45.560Z,101403.23
2018-05-24T11:02:13.812Z,101398.80
2018-05-24T11:04:42.895Z,101394.91
2018-05-24T11:07:11.309Z,101394.59
2018-05-24T11:09:40.346Z,101394.05
2018-05-24T11:12:08.627Z,101397.89
2018-05-24T11:14:36.950Z,101388.88
2018-05-24T11:17:05.243Z,101384.69
2018-05-24T11:19:33.506Z,101379.60
2018-05-24T11:22:01.807Z,101379.78
2018-05-24T11:24:30.055Z,101378.36
2018-05-24T11:26:58.330Z,101369.97
2018-05-24T11:29:26.674Z,101370.30
2018-05-24T11:31:55.170Z,101368.14
2018-05-24T11:34:23.437Z,101370.10
2018-05-24T11:36:52.513Z,101361.09
2018-05-24T11:39:20.742Z,101365.31
2018-05-24T11:41:48.994Z,101357.19
2018-05-24T11:44:17.283Z,101365.32
2018-05-24T11:46:45.543Z,101360.05
2018-05-24T11:49:13.807Z,101361.69
2018-05-24T11:51:42.097Z,101350.91
2018-05-24T11:54:10.381Z,101352.37
2018-05-24T11:56:38.643Z,101350.14
2018-05-24T11:59:07.767Z,101350.28
2018-05-24T12:01:37.281Z,101354.61
2018-05-24T12:04:06.426Z,101351.01
2018-05-24T12:06:34.697Z,101346.83
2018-05-24T12:09:02.983Z,101354.06
2018-05-24T12:11:31.240Z,101338.27
2018-05-24T12:13:59.536Z,101342.94
2018-05-24T12:16:28.557Z,101339.72
2018-05-24T12:18:57.608Z,101339.97
2018-05-24T12:21:25.889Z,101341.48
2018-05-24T12:23:54.265Z,101331.46
2018-05-24T12:26:23.293Z,101326.31
2018-05-24T12:28:51.556Z,101331.30
2018-05-24T12:31:19.839Z,101316.19
2018-05-24T12:33:48.859Z,101309.73
2018-05-24T12:36:17.906Z,101304.20
2018-05-24T12:38:46.163Z,101305.09
2018-05-24T12:41:14.424Z,101298.44
2018-05-24T12:43:43.523Z,101292.39
2018-05-24T12:46:11.783Z,101296.93
2018-05-24T12:48:40.057Z,101287.07
2018-05-24T12:51:08.334Z,101283.36
2018-05-24T12:53:36.606Z,101285.40
2018-05-24T12:56:04.875Z,101278.25
2018-05-24T12:58:33.153Z,101277.00
2018-05-24T13:01:01.424Z,101281.05
2018-05-24T13:03:29.688Z,101274.20
2018-05-24T13:05:57.954Z,101274.65
2018-05-24T13:08:26.976Z,101276.77
2018-05-24T13:10:55.252Z,101261.55
2018-05-24T13:13:24.368Z,101267.75
2018-05-24T13:15:53.372Z,101270.69
2018-05-24T13:18:21.668Z,101265.61
2018-05-24T13:20:49.955Z,101263.17
2018-05-24T13:23:18.212Z,101256.50
2018-05-24T13:25:46.477Z,101256.25
2018-05-24T13:28:14.758Z,101255.00
2018-05-24T13:30:43.785Z,101257.02
2018-05-24T13:33:12.032Z,101247.97
2018-05-24T13:35:40.418Z,101247.73
2018-05-24T13:38:08.704Z,101243.64
2018-05-24T13:40:37.090Z,101241.69
2018-05-24T13:43:05.396Z,101234.55
2018-05-24T13:45:33.667Z,101235.91
2018-05-24T13:48:02.793Z,101237.63
2018-05-24T13:50:31.065Z,101227.55
2018-05-24T13:53:00.094Z,101229.86
2018-05-24T13:55:28.358Z,101226.48
2018-05-24T13:57:57.421Z,101227.22
2018-05-24T14:00:25.694Z,101223.61
2018-05-24T14:02:53.974Z,101218.66
2018-05-24T14:05:22.245Z,101223.25
2018-05-24T14:07:51.275Z,101210.68
2018-05-24T14:10:19.583Z,101207.36
2018-05-24T14:12:48.662Z,101202.56
2018-05-24T14:15:16.962Z,101198.23
2018-05-24T14:17:45.217Z,101210.09
2018-05-24T14:20:14.263Z,101200.19
2018-05-24T14:22:42.533Z,101197.36
2018-05-24T14:25:11.569Z,101194.60
2018-05-24T14:27:39.851Z,101204.63
2018-05-24T14:30:08.145Z,101194.39
2018-05-24T14:32:38.136Z,101199.86
2018-05-24T14:35:06.561Z,101202.43
2018-05-24T14:37:34.902Z,101192.33
2018-05-24T14:40:03.161Z,101200.25
2018-05-24T14:42:31.526Z,101198.12
2018-05-24T14:45:00.561Z,101202.67
2018-05-24T14:47:28.816Z,101198.34
2018-05-24T14:49:57.895Z,101194.53
2018-05-24T14:52:26.147Z,101195.14
2018-05-24T14:54:54.423Z,101202.94
2018-05-24T14:57:22.698Z,101220.00
2018-05-24T14:59:51.011Z,101225.71
2018-05-24T15:02:19.297Z,101245.05
2018-05-24T15:04:47.574Z,101259.66
2018-05-24T15:07:15.862Z,101245.09
2018-05-24T15:09:44.138Z,101256.29
2018-05-24T15:12:13.258Z,101252.84
2018-05-24T15:14:41.528Z,101250.67
2018-05-24T15:17:09.811Z,101247.98
2018-05-24T15:19:38.113Z,101246.20
2018-05-24T15:22:06.498Z,101240.44
2018-05-24T15:24:34.849Z,101239.48
2018-05-24T15:27:03.218Z,101240.08
2018-05-24T15:29:31.470Z,101233.37
2018-05-24T15:31:59.769Z,101225.84
2018-05-24T15:34:28.819Z,101225.99
2018-05-24T15:36:58.631Z,101224.75
2018-05-24T15:39:26.925Z,101227.02
2018-05-24T15:41:55.224Z,101229.70
2018-05-24T15:44:23.532Z,101230.45
2018-05-24T15:46:51.771Z,101232.59
2018-05-24T15:49:20.855Z,101232.28
2018-05-24T15:51:49.126Z,101229.28
2018-05-24T15:54:17.403Z,101224.55
2018-05-24T15:56:48.827Z,101222.72
2018-05-24T15:59:17.141Z,101214.02
2018-05-24T16:01:45.425Z,101214.20
2018-05-24T16:04:13.910Z,101205.44
2018-05-24T16:06:42.919Z,101204.84
2018-05-24T16:09:11.312Z,101201.79
2018-05-24T16:11:39.637Z,101202.25
2018-05-24T16:14:07.993Z,101197.50
2018-05-24T16:16:36.307Z,101194.68
2018-05-24T16:19:04.608Z,101191.36
2018-05-24T16:21:32.979Z,101180.52
2018-05-24T16:24:01.365Z,101184.33
2018-05-24T16:26:29.782Z,101181.34
2018-05-24T16:28:58.036Z,101180.91
2018-05-24T16:31:27.083Z,101184.08
2018-05-24T16:33:55.415Z,101183.05
2018-05-24T16:36:23.657Z,101177.62
2018-05-24T16:38:51.922Z,101177.69
2018-05-24T16:41:20.245Z,101173.05
2018-05-24T16:43:48.500Z,101178.03
2018-05-24T16:46:16.848Z,101175.58
2018-05-24T16:48:45.116Z,101181.80
2018-05-24T16:51:13.390Z,101189.27
2018-05-24T16:53:41.660Z,101182.03
2018-05-24T16:56:09.943Z,101181.89
2018-05-24T16:58:38.969Z,101185.46
2018-05-24T17:01:07.229Z,101186.30
2018-05-24T17:03:35.555Z,101189.45
2018-05-24T17:06:03.843Z,101192.36
2018-05-24T17:08:32.241Z,101192.19
2018-05-24T17:11:02.780Z,101193.23
2018-05-24T17:13:31.044Z,101186.19
2018-05-24T17:15:59.847Z,101192.77
2018-05-24T17:18:28.863Z,101186.36
2018-05-24T17:20:57.133Z,101197.14
2018-05-24T17:23:25.447Z,101196.77
2018-05-24T17:25:54.484Z,101194.84
2018-05-24T17:28:22.791Z,101195.73
2018-05-24T17:30:51.017Z,101193.27
2018-05-24T17:33:21.160Z,101193.79
2018-05-24T17:35:49.585Z,101191.18
2018-05-24T17:38:17.850Z,101193.42
2018-05-24T17:40:46.138Z,101196.73
2018-05-24T17:43:15.151Z,101195.56
2018-05-24T17:45:43.460Z,101188.41
2018-05-24T17:48:11.761Z,101201.62
2018-05-24T17:50:40.122Z,101202.28
2018-05-24T17:53:08.378Z,101199.29
2018-05-24T17:55:36.687Z,101212.89
2018-05-24T17:58:09.659Z,101210.27
2018-05-24T18:00:38.013Z,101220.09
2018-05-24T18:03:06.285Z,101219.80
2018-05-24T18:05:39.150Z,101227.52
2018-05-24T18:08:08.574Z,101223.77
2018-05-24T18:10:37.580Z,101223.27
2018-05-24T18:13:06.846Z,101225.19
2018-05-24T18:15:40.191Z,101230.19
2018-05-24T18:18:08.558Z,101229.84
2018-05-24T18:20:36.824Z,101228.91
2018-05-24T18:23:05.086Z,101232.07
2018-05-24T18:25:34.134Z,101224.13
2018-05-24T18:28:02.499Z,101224.52
2018-05-24T18:30:31.611Z,101234.01
2018-05-24T18:33:00.652Z,101236.32
2018-05-24T18:35:28.946Z,101234.96
2018-05-24T18:37:57.203Z,101239.55
2018-05-24T18:40:25.504Z,101234.40
2018-05-24T18:42:53.858Z,101241.94
2018-05-24T18:45:22.797Z,101240.77
2018-05-24T18:47:51.093Z,101245.98
2018-05-24T18:50:22.042Z,101241.05
2018-05-24T18:52:50.328Z,101254.28
2018-05-24T18:55:18.583Z,101258.07
2018-05-24T18:57:46.901Z,101257.50
2018-05-24T19:00:15.947Z,101259.03
2018-05-24T19:02:44.225Z,101265.22
2018-05-24T19:05:12.497Z,101267.90
2018-05-24T19:07:40.747Z,101265.36
2018-05-24T19:10:09.019Z,101267.11
2018-05-24T19:12:37.298Z,101264.94
2018-05-24T19:15:05.653Z,101268.33
2018-05-24T19:17:33.914Z,101261.39
2018-05-24T19:20:02.934Z,101270.94
2018-05-24T19:22:31.988Z,101271.93
2018-05-24T19:25:00.270Z,101266.82
2018-05-24T19:27:28.529Z,101269.43
2018-05-24T19:29:57.549Z,101272.06
2018-05-24T19:32:25.817Z,101275.84
2018-05-24T19:34:54.854Z,101274.27
2018-05-24T19:37:23.099Z,101275.30
2018-05-24T19:39:51.420Z,101274.89
2018-05-24T19:42:19.689Z,101276.06
2018-05-24T19:44:48.707Z,101277.76
2018-05-24T19:47:16.991Z,101276.61
2018-05-24T19:49:45.241Z,101275.53
2018-05-24T19:52:13.542Z,101278.31
2018-05-24T19:54:42.697Z,101291.95
2018-05-24T19:57:11.700Z,101291.66
2018-05-24T19:59:39.969Z,101293.98
2018-05-24T20:02:08.276Z,101294.84
2018-05-24T20:04:37.315Z,101300.73
2018-05-24T20:07:05.607Z,101306.61
2018-05-24T20:09:33.879Z,101302.45
2018-05-24T20:12:02.149Z,101311.10
2018-05-24T20:14:31.189Z,101306.22
2018-05-24T20:16:59.476Z,101311.96
2018-05-24T20:19:27.754Z,101310.19
2018-05-24T20:21:56.009Z,101312.30
2018-05-24T20:24:24.297Z,101317.91
2018-05-24T20:26:52.556Z,101310.98
2018-05-24T20:29:20.824Z,101314.84
2018-05-24T20:31:49.086Z,101320.69
2018-05-24T20:34:18.108Z,101318.74
2018-05-24T20:36:46.502Z,101322.57
2018-05-24T20:39:14.802Z,101313.92
2018-05-24T20:41:43.143Z,101317.05
2018-05-24T20:44:11.356Z,101316.03
2018-05-24T20:46:39.895Z,101317.52
2018-05-24T20:49:08.155Z,101319.97
2018-05-24T20:51:36.427Z,101315.24
2018-05-24T20:54:05.476Z,101313.23
2018-05-24T20:56:33.762Z,101309.00
2018-05-24T20:59:02.043Z,101316.09
2018-05-24T21:01:30.450Z,101312.30
2018-05-24T21:03:58.704Z,101306.09
2018-05-24T21:06:27.733Z,101317.12
2018-05-24T21:08:56.020Z,101311.30
2018-05-24T21:11:24.613Z,101311.92
2018-05-24T21:13:53.826Z,101307.60
2018-05-24T21:16:23.335Z,101305.09
2018-05-24T21:18:52.330Z,101309.79
2018-05-24T21:21:20.739Z,101309.72
2018-05-24T21:23:50.848Z,101308.55
2018-05-24T21:26:20.143Z,101306.05
2018-05-24T21:28:50.749Z,101304.59
2018-05-24T21:31:21.369Z,101299.94
2018-05-24T21:33:49.771Z,101293.78
2018-05-24T21:36:18.073Z,101300.83
2018-05-24T21:38:46.471Z,101291.63
2018-05-24T21:41:16.154Z,101291.68
2018-05-24T21:43:44.652Z,101290.79
2018-05-24T21:46:16.240Z,101293.06
2018-05-24T21:48:48.157Z,101291.81
2018-05-24T21:51:16.780Z,101298.27
2018-05-24T21:53:45.468Z,101294.09
2018-05-24T21:56:16.775Z,101296.47
2018-05-24T21:58:45.697Z,101295.50
2018-05-24T22:01:14.746Z,101287.53
2018-05-24T22:03:45.948Z,101292.45
2018-05-24T22:06:16.641Z,101291.10
2018-05-24T22:08:44.909Z,101287.02
2018-05-24T22:11:13.288Z,101289.87
2018-05-24T22:13:41.574Z,101293.52
2018-05-24T22:16:09.860Z,101290.09
2018-05-24T22:18:38.175Z,101297.79
2018-05-24T22:21:06.461Z,101302.52
2018-05-24T22:23:34.723Z,101301.44
2018-05-24T22:26:03.762Z,101306.44
2018-05-24T22:28:32.025Z,101309.57
2018-05-24T22:31:00.309Z,101315.83
2018-05-24T22:33:29.403Z,101315.83
2018-05-24T22:35:58.428Z,101317.56
2018-05-24T22:38:26.702Z,101320.39
2018-05-24T22:40:55.731Z,101317.97
2018-05-24T22:43:24.020Z,101319.79
2018-05-24T22:45:53.053Z,101323.14
2018-05-24T22:48:21.529Z,101315.31
2018-05-24T22:50:49.805Z,101313.12
2018-05-24T22:53:18.842Z,101313.71
2018-05-24T22:55:47.399Z,101310.83
2018-05-24T22:58:16.515Z,101305.92
2018-05-24T23:00:45.628Z,101307.64
2018-05-24T23:03:14.771Z,101312.24
2018-05-24T23:05:43.026Z,101310.25
2018-05-24T23:08:12.091Z,101308.14
2018-05-24T23:10:40.383Z,101303.79
2018-05-24T23:13:08.670Z,101307.00
2018-05-24T23:15:36.962Z,101300.08
2018-05-24T23:18:05.254Z,101297.63
2018-05-24T23:20:33.534Z,101307.08
2018-05-24T23:23:01.876Z,101302.59
2018-05-24T23:25:30.930Z,101305.03
2018-05-24T23:27:59.195Z,101301.30
2018-05-24T23:30:27.469Z,101300.33
2018-05-24T23:32:56.538Z,101300.98
2018-05-24T23:35:24.795Z,101298.51
2018-05-24T23:37:53.283Z,101294.07
2018-05-24T23:40:21.551Z,101302.20
2018-05-24T23:42:49.866Z,101303.66
2018-05-24T23:45:18.135Z,101296.43
2018-05-24T23:47:47.254Z,101296.32
2018-05-24T23:50:16.277Z,101300.73
2018-05-24T23:52:44.543Z,101299.70
2018-05-24T23:55:13.593Z,101301.30
2018-05-24T23:57:41.863Z,101302.22
